Αρχική σελίδα
METAR-TAF:

METAR-TAF

Αεροδρόμια :

Cayo Coco, Κούβα

γεωγραφικό πλάτος: 22-27-40N, γεωγραφικό μήκος: 078-19-42W, υψόμετρο: 4 μ

Παρών καιρός

Η αναφορά έγινε 57 λεπτά πριν, στις 00:50 UTC
Άνεμος 4 kt από Α/BA
Θερμοκρασία 21°C
Υγρασία 88%
Πίεση 1017 hPa
Ορατότητα: 9000 μ
Αρκετά νέφη σε ύψος 1800 πόδια

METAR: MUCC 190050Z 06004KT 9000 BKN018 21/19 Q1017

Χρόνος: 20:47 (01:47 UTC)

Πρόγνωση Καιρού

Η αναφορά έγινε 2 ώρες και 47 λεπτά πριν, στις 23:00 UTC
Η πρόγνωση ισχύει από τις 19 στις 00 UTC έως τις 19 στις 24 UTC
Άνεμος 5 kt από BA
Ορατότητα: 9000 μ
Διάσπαρτα νέφη σε ύψος 2000 πόδια
Καθιστάμενος
από 19 στις 15 UTC έως τις 19 στις 17 UTC
Άνεμος 10 kt από BA

TAF: MUCC 182300Z 1900/1924 04005KT 9000 SCT020 BECMG 1915/1917 04010KT

Μετεωρολογικές αναφορές και προγνώσεις για περισσότερα από 4000 αεροδρόμια (δελτία METAR και TAF).

Οι διαθέσιμοι σταθμοί απεικονίζονται στο χάρτη με κίτρινες και κόκκινες κουκκίδες.

Μετακινήστε το ποντίκι πάνω από τις κουκκίδες για να δείτε το όνομα του σταθμού.

Στη συνέχεια, κάντε κλικ για να δείτε τις μετεωρολογικές αναφορές και τις προγνώσεις καιρού.

Για να αλλάξετε το χάρτη: κάντε κλικ στα πράσινα κουμπιά με τον μαύρο σταυρό για να ζουμάρετε, στο πράσινο κουμπί με την παύλα για να αφαιρέσετε το ζουμ ή στα πράσινα βέλη για να αντιπαραβάλλετε χάρτες.


METAR-TAF: